sensor_id;sensor_type;location;lat;lon;timestamp;pressure;altitude;pressure_sealevel;temperature;humidity
38289;BME280;24092;53.370;-6.588;2022-12-16T00:01:49;101155.66;;;-7.94;100.00
38289;BME280;24092;53.370;-6.588;2022-12-16T00:04:16;101153.73;;;-7.47;100.00
38289;BME280;24092;53.370;-6.588;2022-12-16T00:06:43;101158.81;;;-7.27;100.00
38289;BME280;24092;53.370;-6.588;2022-12-16T00:09:11;101153.69;;;-7.27;100.00
38289;BME280;24092;53.370;-6.588;2022-12-16T00:11:38;101151.99;;;-7.42;100.00
38289;BME280;24092;53.370;-6.588;2022-12-16T00:14:05;101157.47;;;-7.03;100.00
38289;BME280;24092;53.370;-6.588;2022-12-16T00:16:32;101153.05;;;-6.76;100.00
38289;BME280;24092;53.370;-6.588;2022-12-16T00:18:59;101156.77;;;-7.30;100.00
38289;BME280;24092;53.370;-6.588;2022-12-16T00:21:27;101156.45;;;-6.50;100.00
38289;BME280;24092;53.370;-6.588;2022-12-16T00:23:54;101154.75;;;-6.80;100.00
38289;BME280;24092;53.370;-6.588;2022-12-16T00:26:21;101157.48;;;-6.54;100.00
38289;BME280;24092;53.370;-6.588;2022-12-16T00:28:48;101158.30;;;-6.06;100.00
38289;BME280;24092;53.370;-6.588;2022-12-16T00:31:16;101156.74;;;-6.51;100.00
38289;BME280;24092;53.370;-6.588;2022-12-16T00:33:43;101157.41;;;-6.82;100.00
38289;BME280;24092;53.370;-6.588;2022-12-16T00:36:10;101157.89;;;-6.86;100.00
38289;BME280;24092;53.370;-6.588;2022-12-16T00:38:37;101155.66;;;-6.68;100.00
38289;BME280;24092;53.370;-6.588;2022-12-16T00:41:05;101157.16;;;-6.51;100.00
38289;BME280;24092;53.370;-6.588;2022-12-16T00:43:32;101158.48;;;-6.36;100.00
38289;BME280;24092;53.370;-6.588;2022-12-16T00:45:59;101158.93;;;-6.09;100.00
38289;BME280;24092;53.370;-6.588;2022-12-16T00:48:27;101157.13;;;-6.35;100.00
38289;BME280;24092;53.370;-6.588;2022-12-16T00:50:54;101157.30;;;-6.38;100.00
38289;BME280;24092;53.370;-6.588;2022-12-16T00:53:23;101156.13;;;-6.54;100.00
38289;BME280;24092;53.370;-6.588;2022-12-16T00:55:51;101152.54;;;-6.40;100.00
38289;BME280;24092;53.370;-6.588;2022-12-16T00:58:18;101156.03;;;-6.27;100.00
38289;BME280;24092;53.370;-6.588;2022-12-16T01:00:46;101159.32;;;-6.11;100.00
38289;BME280;24092;53.370;-6.588;2022-12-16T01:03:12;101164.57;;;-6.17;100.00
38289;BME280;24092;53.370;-6.588;2022-12-16T01:05:40;101165.11;;;-5.98;100.00
38289;BME280;24092;53.370;-6.588;2022-12-16T01:08:07;101163.73;;;-6.02;100.00
38289;BME280;24092;53.370;-6.588;2022-12-16T01:10:35;101162.60;;;-6.48;100.00
38289;BME280;24092;53.370;-6.588;2022-12-16T01:13:02;101159.48;;;-6.06;100.00
38289;BME280;24092;53.370;-6.588;2022-12-16T01:15:29;101158.20;;;-6.52;100.00
38289;BME280;24092;53.370;-6.588;2022-12-16T01:17:56;101157.00;;;-6.16;100.00
38289;BME280;24092;53.370;-6.588;2022-12-16T01:20:24;101158.22;;;-6.45;100.00
38289;BME280;24092;53.370;-6.588;2022-12-16T01:22:51;101154.42;;;-6.43;100.00
38289;BME280;24092;53.370;-6.588;2022-12-16T01:25:18;101155.35;;;-6.27;100.00
38289;BME280;24092;53.370;-6.588;2022-12-16T01:27:45;101152.66;;;-7.02;100.00
38289;BME280;24092;53.370;-6.588;2022-12-16T01:30:13;101147.66;;;-6.73;100.00
38289;BME280;24092;53.370;-6.588;2022-12-16T01:32:40;101152.40;;;-7.43;100.00
38289;BME280;24092;53.370;-6.588;2022-12-16T01:35:07;101161.11;;;-6.91;100.00
38289;BME280;24092;53.370;-6.588;2022-12-16T01:37:35;101167.97;;;-6.86;100.00
38289;BME280;24092;53.370;-6.588;2022-12-16T01:40:02;101166.38;;;-7.02;100.00
38289;BME280;24092;53.370;-6.588;2022-12-16T01:42:30;101162.27;;;-7.46;100.00
38289;BME280;24092;53.370;-6.588;2022-12-16T01:45:24;101163.14;;;-7.06;100.00
38289;BME280;24092;53.370;-6.588;2022-12-16T01:47:58;101163.97;;;-7.23;100.00
38289;BME280;24092;53.370;-6.588;2022-12-16T01:50:27;101166.74;;;-6.90;100.00
38289;BME280;24092;53.370;-6.588;2022-12-16T01:52:56;101162.65;;;-6.81;100.00
38289;BME280;24092;53.370;-6.588;2022-12-16T01:55:28;101155.98;;;-7.05;100.00
38289;BME280;24092;53.370;-6.588;2022-12-16T01:58:00;101162.00;;;-6.90;100.00
38289;BME280;24092;53.370;-6.588;2022-12-16T02:00:28;101164.94;;;-6.46;100.00
38289;BME280;24092;53.370;-6.588;2022-12-16T02:02:56;101167.41;;;-6.15;100.00
38289;BME280;24092;53.370;-6.588;2022-12-16T02:05:24;101166.68;;;-6.50;100.00
38289;BME280;24092;53.370;-6.588;2022-12-16T02:07:57;101163.48;;;-6.06;100.00
38289;BME280;24092;53.370;-6.588;2022-12-16T02:10:32;101163.12;;;-6.13;100.00
38289;BME280;24092;53.370;-6.588;2022-12-16T02:13:13;101165.10;;;-6.34;100.00
38289;BME280;24092;53.370;-6.588;2022-12-16T02:15:51;101166.82;;;-6.46;100.00
38289;BME280;24092;53.370;-6.588;2022-12-16T02:18:31;101167.87;;;-6.23;100.00
38289;BME280;24092;53.370;-6.588;2022-12-16T02:21:13;101169.34;;;-5.87;100.00
38289;BME280;24092;53.370;-6.588;2022-12-16T02:24:03;101165.89;;;-6.33;100.00
38289;BME280;24092;53.370;-6.588;2022-12-16T02:27:01;101168.20;;;-5.92;100.00
38289;BME280;24092;53.370;-6.588;2022-12-16T02:29:56;101174.54;;;-5.77;100.00
38289;BME280;24092;53.370;-6.588;2022-12-16T02:32:31;101170.73;;;-6.08;100.00
38289;BME280;24092;53.370;-6.588;2022-12-16T02:35:09;101170.21;;;-7.02;100.00
38289;BME280;24092;53.370;-6.588;2022-12-16T02:37:43;101176.78;;;-7.36;100.00
38289;BME280;24092;53.370;-6.588;2022-12-16T02:40:20;101172.56;;;-6.97;100.00
38289;BME280;24092;53.370;-6.588;2022-12-16T02:42:52;101171.82;;;-6.84;100.00
38289;BME280;24092;53.370;-6.588;2022-12-16T02:45:23;101171.61;;;-6.85;100.00
38289;BME280;24092;53.370;-6.588;2022-12-16T02:47:52;101168.88;;;-7.37;100.00
38289;BME280;24092;53.370;-6.588;2022-12-16T02:50:21;101169.54;;;-7.18;100.00
38289;BME280;24092;53.370;-6.588;2022-12-16T02:52:51;101163.81;;;-6.64;100.00
38289;BME280;24092;53.370;-6.588;2022-12-16T02:55:19;101160.98;;;-7.24;100.00
38289;BME280;24092;53.370;-6.588;2022-12-16T02:57:58;101164.51;;;-7.29;100.00
38289;BME280;24092;53.370;-6.588;2022-12-16T03:00:39;101162.39;;;-6.67;100.00
38289;BME280;24092;53.370;-6.588;2022-12-16T03:03:08;101159.02;;;-7.32;100.00
38289;BME280;24092;53.370;-6.588;2022-12-16T03:05:41;101153.47;;;-7.02;100.00
38289;BME280;24092;53.370;-6.588;2022-12-16T03:08:12;101153.87;;;-7.21;100.00
38289;BME280;24092;53.370;-6.588;2022-12-16T03:10:43;101152.59;;;-7.28;100.00
38289;BME280;24092;53.370;-6.588;2022-12-16T03:13:12;101151.08;;;-7.86;100.00
38289;BME280;24092;53.370;-6.588;2022-12-16T03:15:42;101149.05;;;-7.92;100.00
38289;BME280;24092;53.370;-6.588;2022-12-16T03:18:11;101142.68;;;-7.86;100.00
38289;BME280;24092;53.370;-6.588;2022-12-16T03:20:43;101137.46;;;-6.91;100.00
38289;BME280;24092;53.370;-6.588;2022-12-16T03:23:14;101134.92;;;-7.74;100.00
38289;BME280;24092;53.370;-6.588;2022-12-16T03:25:47;101138.28;;;-7.21;100.00
38289;BME280;24092;53.370;-6.588;2022-12-16T03:28:25;101141.00;;;-7.45;100.00
38289;BME280;24092;53.370;-6.588;2022-12-16T03:30:59;101138.30;;;-6.94;100.00
38289;BME280;24092;53.370;-6.588;2022-12-16T03:33:33;101134.87;;;-6.32;100.00
38289;BME280;24092;53.370;-6.588;2022-12-16T03:36:08;101133.50;;;-6.74;100.00
38289;BME280;24092;53.370;-6.588;2022-12-16T03:38:37;101135.27;;;-6.53;100.00
38289;BME280;24092;53.370;-6.588;2022-12-16T03:41:06;101138.47;;;-6.50;100.00
38289;BME280;24092;53.370;-6.588;2022-12-16T03:43:34;101132.70;;;-6.46;100.00
38289;BME280;24092;53.370;-6.588;2022-12-16T03:46:04;101130.26;;;-6.22;100.00
38289;BME280;24092;53.370;-6.588;2022-12-16T03:48:33;101131.00;;;-5.66;100.00
38289;BME280;24092;53.370;-6.588;2022-12-16T03:51:01;101129.27;;;-6.51;100.00
38289;BME280;24092;53.370;-6.588;2022-12-16T03:53:29;101138.68;;;-7.09;100.00
38289;BME280;24092;53.370;-6.588;2022-12-16T03:55:56;101140.15;;;-6.75;100.00
38289;BME280;24092;53.370;-6.588;2022-12-16T03:58:23;101141.63;;;-7.00;100.00
38289;BME280;24092;53.370;-6.588;2022-12-16T04:00:50;101137.35;;;-6.20;100.00
38289;BME280;24092;53.370;-6.588;2022-12-16T04:03:17;101135.01;;;-6.01;100.00
38289;BME280;24092;53.370;-6.588;2022-12-16T04:05:45;101129.71;;;-6.33;100.00
38289;BME280;24092;53.370;-6.588;2022-12-16T04:08:12;101132.05;;;-6.56;100.00
38289;BME280;24092;53.370;-6.588;2022-12-16T04:10:39;101132.84;;;-6.68;100.00
38289;BME280;24092;53.370;-6.588;2022-12-16T04:13:08;101137.32;;;-6.52;100.00
38289;BME280;24092;53.370;-6.588;2022-12-16T04:15:35;101139.30;;;-6.39;100.00
38289;BME280;24092;53.370;-6.588;2022-12-16T04:18:02;101134.91;;;-6.59;100.00
38289;BME280;24092;53.370;-6.588;2022-12-16T04:20:32;101131.06;;;-6.83;100.00
38289;BME280;24092;53.370;-6.588;2022-12-16T04:23:00;101127.45;;;-6.28;100.00
38289;BME280;24092;53.370;-6.588;2022-12-16T04:25:30;101124.89;;;-6.90;100.00
38289;BME280;24092;53.370;-6.588;2022-12-16T04:27:58;101125.91;;;-6.10;100.00
38289;BME280;24092;53.370;-6.588;2022-12-16T04:30:28;101122.89;;;-5.97;100.00
38289;BME280;24092;53.370;-6.588;2022-12-16T04:32:58;101119.83;;;-5.61;100.00
38289;BME280;24092;53.370;-6.588;2022-12-16T04:35:27;101114.74;;;-6.03;100.00
38289;BME280;24092;53.370;-6.588;2022-12-16T04:37:54;101110.09;;;-5.44;100.00
38289;BME280;24092;53.370;-6.588;2022-12-16T04:40:20;101109.09;;;-5.48;100.00
38289;BME280;24092;53.370;-6.588;2022-12-16T04:42:47;101111.93;;;-5.41;100.00
38289;BME280;24092;53.370;-6.588;2022-12-16T04:45:15;101114.11;;;-5.65;100.00
38289;BME280;24092;53.370;-6.588;2022-12-16T04:47:42;101109.66;;;-5.88;100.00
38289;BME280;24092;53.370;-6.588;2022-12-16T04:50:09;101104.71;;;-6.00;100.00
38289;BME280;24092;53.370;-6.588;2022-12-16T04:52:36;101099.45;;;-6.45;100.00
38289;BME280;24092;53.370;-6.588;2022-12-16T04:55:04;101097.82;;;-6.11;100.00
38289;BME280;24092;53.370;-6.588;2022-12-16T04:57:32;101097.00;;;-5.87;100.00
38289;BME280;24092;53.370;-6.588;2022-12-16T04:59:59;101098.52;;;-5.92;100.00
38289;BME280;24092;53.370;-6.588;2022-12-16T05:02:26;101098.10;;;-6.04;100.00
38289;BME280;24092;53.370;-6.588;2022-12-16T05:04:54;101099.84;;;-5.97;100.00
38289;BME280;24092;53.370;-6.588;2022-12-16T05:07:21;101102.31;;;-5.93;100.00
38289;BME280;24092;53.370;-6.588;2022-12-16T05:09:48;101102.13;;;-6.26;100.00
38289;BME280;24092;53.370;-6.588;2022-12-16T05:12:15;101103.78;;;-6.27;100.00
38289;BME280;24092;53.370;-6.588;2022-12-16T05:14:42;101105.27;;;-7.06;100.00
38289;BME280;24092;53.370;-6.588;2022-12-16T05:17:09;101101.86;;;-7.00;100.00
38289;BME280;24092;53.370;-6.588;2022-12-16T05:19:37;101096.22;;;-6.02;100.00
38289;BME280;24092;53.370;-6.588;2022-12-16T05:22:04;101090.81;;;-6.36;100.00
38289;BME280;24092;53.370;-6.588;2022-12-16T05:24:31;101087.62;;;-5.92;100.00
38289;BME280;24092;53.370;-6.588;2022-12-16T05:26:58;101085.82;;;-5.39;100.00
38289;BME280;24092;53.370;-6.588;2022-12-16T05:29:25;101090.10;;;-6.15;100.00
38289;BME280;24092;53.370;-6.588;2022-12-16T05:31:52;101085.02;;;-5.78;100.00
38289;BME280;24092;53.370;-6.588;2022-12-16T05:34:19;101085.52;;;-5.73;100.00
38289;BME280;24092;53.370;-6.588;2022-12-16T05:36:46;101088.15;;;-5.42;100.00
38289;BME280;24092;53.370;-6.588;2022-12-16T05:39:14;101090.02;;;-5.83;100.00
38289;BME280;24092;53.370;-6.588;2022-12-16T05:41:41;101090.77;;;-5.90;100.00
38289;BME280;24092;53.370;-6.588;2022-12-16T05:44:09;101089.83;;;-6.01;100.00
38289;BME280;24092;53.370;-6.588;2022-12-16T05:46:36;101086.46;;;-5.68;100.00
38289;BME280;24092;53.370;-6.588;2022-12-16T05:49:04;101087.02;;;-5.86;100.00
38289;BME280;24092;53.370;-6.588;2022-12-16T05:51:31;101082.37;;;-5.59;100.00
38289;BME280;24092;53.370;-6.588;2022-12-16T05:53:58;101086.16;;;-4.73;100.00
38289;BME280;24092;53.370;-6.588;2022-12-16T05:56:25;101092.85;;;-4.83;100.00
38289;BME280;24092;53.370;-6.588;2022-12-16T05:58:52;101090.68;;;-5.00;100.00
38289;BME280;24092;53.370;-6.588;2022-12-16T06:01:19;101084.46;;;-5.45;100.00
38289;BME280;24092;53.370;-6.588;2022-12-16T06:03:46;101079.87;;;-5.74;100.00
38289;BME280;24092;53.370;-6.588;2022-12-16T06:06:13;101079.78;;;-6.00;100.00
38289;BME280;24092;53.370;-6.588;2022-12-16T06:08:40;101079.44;;;-5.74;100.00
38289;BME280;24092;53.370;-6.588;2022-12-16T06:11:08;101080.87;;;-6.27;100.00
38289;BME280;24092;53.370;-6.588;2022-12-16T06:13:34;101079.91;;;-5.76;100.00
38289;BME280;24092;53.370;-6.588;2022-12-16T06:16:02;101083.63;;;-6.24;100.00
38289;BME280;24092;53.370;-6.588;2022-12-16T06:18:29;101082.74;;;-6.11;100.00
38289;BME280;24092;53.370;-6.588;2022-12-16T06:21:00;101081.96;;;-6.05;100.00
38289;BME280;24092;53.370;-6.588;2022-12-16T06:23:28;101080.19;;;-6.23;100.00
38289;BME280;24092;53.370;-6.588;2022-12-16T06:25:54;101075.63;;;-6.40;100.00
38289;BME280;24092;53.370;-6.588;2022-12-16T06:28:22;101073.59;;;-6.38;100.00
38289;BME280;24092;53.370;-6.588;2022-12-16T06:30:49;101075.66;;;-6.10;100.00
38289;BME280;24092;53.370;-6.588;2022-12-16T06:33:16;101074.09;;;-6.62;100.00
38289;BME280;24092;53.370;-6.588;2022-12-16T06:35:42;101071.23;;;-6.46;100.00
38289;BME280;24092;53.370;-6.588;2022-12-16T06:38:10;101070.82;;;-6.91;100.00
38289;BME280;24092;53.370;-6.588;2022-12-16T06:40:37;101077.66;;;-7.04;100.00
38289;BME280;24092;53.370;-6.588;2022-12-16T06:43:05;101081.97;;;-6.66;100.00
38289;BME280;24092;53.370;-6.588;2022-12-16T06:45:32;101083.83;;;-6.64;100.00
38289;BME280;24092;53.370;-6.588;2022-12-16T06:47:59;101085.41;;;-6.32;100.00
38289;BME280;24092;53.370;-6.588;2022-12-16T06:50:27;101084.90;;;-6.77;100.00
38289;BME280;24092;53.370;-6.588;2022-12-16T06:52:54;101085.43;;;-7.16;100.00
38289;BME280;24092;53.370;-6.588;2022-12-16T06:55:21;101079.83;;;-7.03;100.00
38289;BME280;24092;53.370;-6.588;2022-12-16T06:57:54;101075.77;;;-6.77;100.00
38289;BME280;24092;53.370;-6.588;2022-12-16T07:00:22;101072.95;;;-6.46;100.00
38289;BME280;24092;53.370;-6.588;2022-12-16T07:02:49;101071.97;;;-6.48;100.00
38289;BME280;24092;53.370;-6.588;2022-12-16T07:05:17;101070.22;;;-6.44;100.00
38289;BME280;24092;53.370;-6.588;2022-12-16T07:07:46;101073.12;;;-6.56;100.00
38289;BME280;24092;53.370;-6.588;2022-12-16T07:10:14;101076.71;;;-6.67;100.00
38289;BME280;24092;53.370;-6.588;2022-12-16T07:12:41;101078.79;;;-6.69;100.00
38289;BME280;24092;53.370;-6.588;2022-12-16T07:15:10;101075.82;;;-6.28;100.00
38289;BME280;24092;53.370;-6.588;2022-12-16T07:17:38;101071.90;;;-6.69;100.00
38289;BME280;24092;53.370;-6.588;2022-12-16T07:20:07;101071.88;;;-6.54;100.00
38289;BME280;24092;53.370;-6.588;2022-12-16T07:22:34;101070.91;;;-7.10;100.00
38289;BME280;24092;53.370;-6.588;2022-12-16T07:25:02;101071.60;;;-7.22;100.00
38289;BME280;24092;53.370;-6.588;2022-12-16T07:27:30;101072.49;;;-7.38;100.00
38289;BME280;24092;53.370;-6.588;2022-12-16T07:29:57;101073.13;;;-7.20;100.00
38289;BME280;24092;53.370;-6.588;2022-12-16T07:32:24;101076.78;;;-7.03;100.00
38289;BME280;24092;53.370;-6.588;2022-12-16T07:34:51;101075.02;;;-6.57;100.00
38289;BME280;24092;53.370;-6.588;2022-12-16T07:37:18;101076.94;;;-6.71;100.00
38289;BME280;24092;53.370;-6.588;2022-12-16T07:39:46;101077.87;;;-6.62;100.00
38289;BME280;24092;53.370;-6.588;2022-12-16T07:42:13;101077.86;;;-6.37;100.00
38289;BME280;24092;53.370;-6.588;2022-12-16T07:44:40;101080.16;;;-6.76;100.00
38289;BME280;24092;53.370;-6.588;2022-12-16T07:47:07;101080.66;;;-6.92;100.00
38289;BME280;24092;53.370;-6.588;2022-12-16T07:49:35;101081.44;;;-7.15;100.00
38289;BME280;24092;53.370;-6.588;2022-12-16T07:52:02;101084.82;;;-7.11;100.00
38289;BME280;24092;53.370;-6.588;2022-12-16T07:54:29;101087.54;;;-6.85;100.00
38289;BME280;24092;53.370;-6.588;2022-12-16T07:56:57;101093.54;;;-7.02;100.00
38289;BME280;24092;53.370;-6.588;2022-12-16T07:59:24;101092.62;;;-6.71;100.00
38289;BME280;24092;53.370;-6.588;2022-12-16T08:01:50;101093.60;;;-7.04;100.00
38289;BME280;24092;53.370;-6.588;2022-12-16T08:04:18;101096.12;;;-7.21;100.00
38289;BME280;24092;53.370;-6.588;2022-12-16T08:06:46;101087.61;;;-7.40;100.00
38289;BME280;24092;53.370;-6.588;2022-12-16T08:09:13;101087.10;;;-6.92;100.00
38289;BME280;24092;53.370;-6.588;2022-12-16T08:11:41;101081.58;;;-7.37;100.00
38289;BME280;24092;53.370;-6.588;2022-12-16T08:14:08;101086.91;;;-7.41;100.00
38289;BME280;24092;53.370;-6.588;2022-12-16T08:16:35;101088.88;;;-7.68;100.00
38289;BME280;24092;53.370;-6.588;2022-12-16T08:19:03;101088.89;;;-8.19;100.00
38289;BME280;24092;53.370;-6.588;2022-12-16T08:21:30;101090.67;;;-8.08;100.00
38289;BME280;24092;53.370;-6.588;2022-12-16T08:23:57;101088.89;;;-7.47;100.00
38289;BME280;24092;53.370;-6.588;2022-12-16T08:26:25;101088.69;;;-7.85;100.00
38289;BME280;24092;53.370;-6.588;2022-12-16T08:28:52;101086.24;;;-7.61;100.00
38289;BME280;24092;53.370;-6.588;2022-12-16T08:31:19;101087.11;;;-7.40;100.00
38289;BME280;24092;53.370;-6.588;2022-12-16T08:33:46;101091.66;;;-7.81;100.00
38289;BME280;24092;53.370;-6.588;2022-12-16T08:36:14;101089.41;;;-7.84;100.00
38289;BME280;24092;53.370;-6.588;2022-12-16T08:38:42;101092.89;;;-7.71;100.00
38289;BME280;24092;53.370;-6.588;2022-12-16T08:41:09;101096.89;;;-7.87;100.00
38289;BME280;24092;53.370;-6.588;2022-12-16T08:43:37;101105.29;;;-8.31;100.00
38289;BME280;24092;53.370;-6.588;2022-12-16T08:46:04;101109.44;;;-7.84;100.00
38289;BME280;24092;53.370;-6.588;2022-12-16T08:48:31;101114.28;;;-7.62;100.00
38289;BME280;24092;53.370;-6.588;2022-12-16T08:51:00;101114.40;;;-7.29;100.00
38289;BME280;24092;53.370;-6.588;2022-12-16T08:53:28;101111.73;;;-7.68;100.00
38289;BME280;24092;53.370;-6.588;2022-12-16T08:55:55;101110.97;;;-7.80;100.00
38289;BME280;24092;53.370;-6.588;2022-12-16T08:58:22;101108.95;;;-7.11;100.00
38289;BME280;24092;53.370;-6.588;2022-12-16T09:00:50;101108.51;;;-7.37;100.00
38289;BME280;24092;53.370;-6.588;2022-12-16T09:03:17;101109.81;;;-7.92;100.00
38289;BME280;24092;53.370;-6.588;2022-12-16T09:05:44;101115.07;;;-7.77;100.00
38289;BME280;24092;53.370;-6.588;2022-12-16T09:08:12;101118.50;;;-7.13;100.00
38289;BME280;24092;53.370;-6.588;2022-12-16T09:10:40;101117.41;;;-7.68;100.00
38289;BME280;24092;53.370;-6.588;2022-12-16T09:13:09;101114.86;;;-7.30;100.00
38289;BME280;24092;53.370;-6.588;2022-12-16T09:15:36;101113.12;;;-8.07;100.00
38289;BME280;24092;53.370;-6.588;2022-12-16T09:18:03;101116.11;;;-8.09;100.00
38289;BME280;24092;53.370;-6.588;2022-12-16T09:20:31;101110.93;;;-7.71;100.00
38289;BME280;24092;53.370;-6.588;2022-12-16T09:23:01;101115.45;;;-7.92;100.00
38289;BME280;24092;53.370;-6.588;2022-12-16T09:25:27;101116.98;;;-8.17;100.00
38289;BME280;24092;53.370;-6.588;2022-12-16T09:27:55;101117.19;;;-8.13;100.00
38289;BME280;24092;53.370;-6.588;2022-12-16T09:30:23;101116.59;;;-7.79;100.00
38289;BME280;24092;53.370;-6.588;2022-12-16T09:32:49;101119.74;;;-7.85;100.00
38289;BME280;24092;53.370;-6.588;2022-12-16T09:35:17;101121.56;;;-7.99;100.00
38289;BME280;24092;53.370;-6.588;2022-12-16T09:37:45;101120.71;;;-7.53;100.00
38289;BME280;24092;53.370;-6.588;2022-12-16T09:40:15;101121.99;;;-7.28;100.00
38289;BME280;24092;53.370;-6.588;2022-12-16T09:42:49;101120.14;;;-6.94;100.00
38289;BME280;24092;53.370;-6.588;2022-12-16T09:45:21;101119.73;;;-6.86;100.00
38289;BME280;24092;53.370;-6.588;2022-12-16T09:48:02;101119.24;;;-7.21;100.00
38289;BME280;24092;53.370;-6.588;2022-12-16T09:50:33;101113.91;;;-7.38;100.00
38289;BME280;24092;53.370;-6.588;2022-12-16T09:53:07;101114.15;;;-7.40;100.00
38289;BME280;24092;53.370;-6.588;2022-12-16T09:55:39;101113.97;;;-7.15;100.00
38289;BME280;24092;53.370;-6.588;2022-12-16T09:58:10;101117.89;;;-7.28;100.00
38289;BME280;24092;53.370;-6.588;2022-12-16T10:00:39;101115.00;;;-7.89;100.00
38289;BME280;24092;53.370;-6.588;2022-12-16T10:03:14;101116.77;;;-7.52;100.00
38289;BME280;24092;53.370;-6.588;2022-12-16T10:05:49;101115.46;;;-7.14;100.00
38289;BME280;24092;53.370;-6.588;2022-12-16T10:08:26;101113.25;;;-7.07;100.00
38289;BME280;24092;53.370;-6.588;2022-12-16T10:10:59;101109.01;;;-7.48;100.00
38289;BME280;24092;53.370;-6.588;2022-12-16T10:13:36;101106.13;;;-7.56;100.00
38289;BME280;24092;53.370;-6.588;2022-12-16T10:16:12;101103.78;;;-7.51;100.00
38289;BME280;24092;53.370;-6.588;2022-12-16T10:18:48;101097.89;;;-7.33;100.00
38289;BME280;24092;53.370;-6.588;2022-12-16T10:21:22;101099.65;;;-7.02;100.00
38289;BME280;24092;53.370;-6.588;2022-12-16T10:23:57;101098.39;;;-6.94;100.00
38289;BME280;24092;53.370;-6.588;2022-12-16T10:26:33;101099.46;;;-6.80;100.00
38289;BME280;24092;53.370;-6.588;2022-12-16T10:29:05;101097.70;;;-7.01;100.00
38289;BME280;24092;53.370;-6.588;2022-12-16T10:31:38;101095.53;;;-6.84;100.00
38289;BME280;24092;53.370;-6.588;2022-12-16T10:34:09;101096.56;;;-6.88;100.00
38289;BME280;24092;53.370;-6.588;2022-12-16T10:36:38;101094.24;;;-6.37;100.00
38289;BME280;24092;53.370;-6.588;2022-12-16T10:39:18;101090.55;;;-6.75;100.00
38289;BME280;24092;53.370;-6.588;2022-12-16T10:41:51;101085.02;;;-6.41;100.00
38289;BME280;24092;53.370;-6.588;2022-12-16T10:44:23;101079.70;;;-5.93;100.00
38289;BME280;24092;53.370;-6.588;2022-12-16T10:46:51;101078.10;;;-5.99;100.00
38289;BME280;24092;53.370;-6.588;2022-12-16T10:49:19;101079.18;;;-5.66;100.00
38289;BME280;24092;53.370;-6.588;2022-12-16T10:51:46;101077.00;;;-5.67;100.00
38289;BME280;24092;53.370;-6.588;2022-12-16T10:54:24;101076.90;;;-5.57;100.00
38289;BME280;24092;53.370;-6.588;2022-12-16T10:56:59;101076.03;;;-5.65;100.00
38289;BME280;24092;53.370;-6.588;2022-12-16T10:59:34;101081.51;;;-6.06;100.00
38289;BME280;24092;53.370;-6.588;2022-12-16T11:02:04;101078.23;;;-6.18;100.00
38289;BME280;24092;53.370;-6.588;2022-12-16T11:04:41;101077.59;;;-5.81;100.00
38289;BME280;24092;53.370;-6.588;2022-12-16T11:07:22;101076.55;;;-5.40;100.00
38289;BME280;24092;53.370;-6.588;2022-12-16T11:09:49;101072.62;;;-5.59;100.00
38289;BME280;24092;53.370;-6.588;2022-12-16T11:12:20;101067.16;;;-5.70;100.00
38289;BME280;24092;53.370;-6.588;2022-12-16T11:14:51;101059.83;;;-5.03;100.00
38289;BME280;24092;53.370;-6.588;2022-12-16T11:17:21;101062.90;;;-5.24;100.00
38289;BME280;24092;53.370;-6.588;2022-12-16T11:20:06;101060.15;;;-5.53;100.00
38289;BME280;24092;53.370;-6.588;2022-12-16T11:22:34;101054.81;;;-5.30;100.00
38289;BME280;24092;53.370;-6.588;2022-12-16T11:25:05;101054.27;;;-5.22;100.00
38289;BME280;24092;53.370;-6.588;2022-12-16T11:27:33;101051.14;;;-5.30;100.00
38289;BME280;24092;53.370;-6.588;2022-12-16T11:30:02;101050.59;;;-4.80;100.00
38289;BME280;24092;53.370;-6.588;2022-12-16T11:32:31;101048.49;;;-4.86;100.00
38289;BME280;24092;53.370;-6.588;2022-12-16T11:35:02;101043.88;;;-5.20;100.00
38289;BME280;24092;53.370;-6.588;2022-12-16T11:37:31;101043.65;;;-5.02;100.00
38289;BME280;24092;53.370;-6.588;2022-12-16T11:39:59;101043.05;;;-5.43;100.00
38289;BME280;24092;53.370;-6.588;2022-12-16T11:42:31;101045.84;;;-5.64;100.00
38289;BME280;24092;53.370;-6.588;2022-12-16T11:45:01;101044.65;;;-5.77;100.00
38289;BME280;24092;53.370;-6.588;2022-12-16T11:47:35;101041.67;;;-5.42;100.00
38289;BME280;24092;53.370;-6.588;2022-12-16T11:50:09;101035.14;;;-5.69;100.00
38289;BME280;24092;53.370;-6.588;2022-12-16T11:52:38;101033.05;;;-5.40;100.00
38289;BME280;24092;53.370;-6.588;2022-12-16T11:55:15;101031.36;;;-5.16;100.00
38289;BME280;24092;53.370;-6.588;2022-12-16T11:57:49;101024.69;;;-5.10;100.00
38289;BME280;24092;53.370;-6.588;2022-12-16T12:00:19;101026.44;;;-5.57;100.00
38289;BME280;24092;53.370;-6.588;2022-12-16T12:02:51;101020.64;;;-5.26;100.00
38289;BME280;24092;53.370;-6.588;2022-12-16T12:05:27;101016.41;;;-5.34;100.00
38289;BME280;24092;53.370;-6.588;2022-12-16T12:08:00;101016.07;;;-5.02;100.00
38289;BME280;24092;53.370;-6.588;2022-12-16T12:10:44;101010.80;;;-4.71;100.00
38289;BME280;24092;53.370;-6.588;2022-12-16T12:13:33;101001.75;;;-4.99;100.00
38289;BME280;24092;53.370;-6.588;2022-12-16T12:16:10;100997.92;;;-5.63;100.00
38289;BME280;24092;53.370;-6.588;2022-12-16T12:18:47;100996.29;;;-5.35;100.00
38289;BME280;24092;53.370;-6.588;2022-12-16T12:21:22;100991.02;;;-5.33;100.00
38289;BME280;24092;53.370;-6.588;2022-12-16T12:23:57;100987.09;;;-4.96;100.00
38289;BME280;24092;53.370;-6.588;2022-12-16T12:26:29;100985.68;;;-5.03;100.00
38289;BME280;24092;53.370;-6.588;2022-12-16T12:29:03;100983.04;;;-5.27;100.00
38289;BME280;24092;53.370;-6.588;2022-12-16T12:31:42;100984.39;;;-5.06;100.00
38289;BME280;24092;53.370;-6.588;2022-12-16T12:34:19;100984.74;;;-4.97;100.00
38289;BME280;24092;53.370;-6.588;2022-12-16T12:36:54;100978.21;;;-4.94;100.00
38289;BME280;24092;53.370;-6.588;2022-12-16T12:39:33;100977.78;;;-4.65;100.00
38289;BME280;24092;53.370;-6.588;2022-12-16T12:42:15;100978.70;;;-4.66;100.00
38289;BME280;24092;53.370;-6.588;2022-12-16T12:44:54;100979.82;;;-4.59;100.00